Latest Weather Observations for Warruwi

IDD60801

Issued at 7:51 pm CST Wednesday 17 July 2024 (issued every 10 minutes, with the page automatically refreshed every 10 minutes)

About weather observations | Map of weather stations | Latest weather observations for NT | Other Formats
Station Details ID: 014401 Name: WARRUWI AIRPORT Lat: -11.65 Lon: 133.38 Height: 19.2 m
Data from the previous 72 hours. | See also: Recent months at Warruwi
Date/Time
CST
Temp
°C
App
Temp
°C
Dew
Point
°C
Rel
Hum
%
Delta-T
°C
Wind Press
QNH
hPa
Press
MSL
hPa
Rain since
9am
mm
Dir  Spd
km/h
Gust
km/h
Spd
kts
Gust
kts
17/07:30pm 24.1 22.0 9.7 40 7.9 SE 11 15 6 8 1015.5 1015.4 0.0
17/07:00pm 24.5 22.2 8.9 37 8.4 SE 11 19 6 10 1015.2 1015.1 0.0
17/06:30pm 24.8 21.9 8.3 35 8.8 SE 13 20 7 11 1014.7 1014.6 0.0
17/06:00pm 25.3 22.0 7.9 33 9.3 SE 15 22 8 12 1014.3 1014.2 0.0
17/05:30pm 26.0 22.9 8.9 34 9.3 SE 15 19 8 10 1013.9 1013.8 0.0
17/05:00pm 26.7 23.3 7.7 30 10.2 SE 15 22 8 12 1013.8 1013.7 0.0
17/04:30pm 26.8 23.2 8.3 31 10.0 SE 17 26 9 14 1013.8 1013.7 0.0
17/04:00pm 26.9 23.6 7.9 30 10.2 ESE 15 26 8 14 1014.0 1013.9 0.0
17/03:30pm 27.5 23.7 7.4 28 10.7 ESE 17 26 9 14 1014.2 1014.1 0.0
17/03:00pm 27.0 22.9 6.4 27 10.8 ESE 17 33 9 18 1014.2 1014.1 0.0
17/02:30pm 26.4 22.2 7.4 30 10.1 ESE 19 30 10 16 1014.6 1014.5 0.0
17/02:00pm 26.6 22.8 7.6 30 10.1 ESE 17 26 9 14 1015.0 1014.9 0.0
17/01:30pm 26.0 22.4 8.5 33 9.4 ESE 17 28 9 15 1015.6 1015.5 0.0
17/01:00pm 25.6 21.6 8.1 33 9.4 SE 19 28 10 15 1016.1 1016.0 0.0
17/12:30pm 25.2 21.0 8.2 34 9.1 ESE 20 30 11 16 1016.9 1016.8 0.0
17/12:00pm 24.9 20.1 8.8 36 8.7 ESE 24 33 13 18 1017.5 1017.4 0.0
17/11:30am 24.6 20.7 9.3 38 8.3 ESE 20 32 11 17 1018.2 1018.1 0.0
17/11:00am 24.0 19.5 9.9 41 7.7 SE 24 35 13 19 1018.6 1018.5 0.0
17/10:30am 23.6 19.4 9.6 41 7.6 SE 22 32 12 17 1018.9 1018.8 0.0
17/10:00am 22.9 17.8 9.3 42 7.3 SE 26 41 14 22 1019.2 1019.1 0.0
17/09:30am 22.7 18.2 10.2 45 6.8 SE 24 37 13 20 1019.5 1019.4 0.0
17/09:00am 21.7 17.7 10.5 49 6.1 SE 22 39 12 21 1019.4 1019.3 0.0
17/08:30am 21.2 17.1 11.5 54 5.4 SE 24 41 13 22 1019.0 1018.9 0.0
17/08:00am 20.9 18.0 12.3 58 4.8 SE 19 32 10 17 1018.5 1018.4 0.0
17/07:30am 20.5 18.3 12.0 58 4.7 SE 15 26 8 14 1017.9 1017.8 0.0
17/07:00am 20.2 17.7 12.2 60 4.5 SE 17 24 9 13 1017.5 1017.4 0.0
17/06:30am 20.2 18.4 13.2 64 4.0 SE 15 28 8 15 1017.1 1017.0 0.0
17/06:00am 20.3 18.1 13.3 64 4.0 ESE 17 26 9 14 1016.9 1016.8 0.0
17/05:30am 20.3 17.7 13.3 64 4.0 ESE 19 28 10 15 1016.8 1016.7 0.0
17/05:00am 20.4 17.7 12.9 62 4.3 SE 19 28 10 15 1016.6 1016.5 0.0
17/04:30am 20.5 18.1 12.5 60 4.5 SE 17 26 9 14 1016.3 1016.2 0.0
17/04:00am 20.8 18.4 12.5 59 4.7 SE 17 30 9 16 1016.2 1016.1 0.0
17/03:30am - - - - - ESE 19 32 10 17 1016.2 1016.1 0.0
17/03:00am 21.2 18.3 12.3 57 5.0 ESE 19 28 10 15 1016.2 1016.1 0.0
17/02:30am 21.4 19.4 12.8 58 4.9 SE 15 26 8 14 1016.2 1016.1 0.0
17/02:00am 21.8 18.9 10.9 50 6.0 SE 17 28 9 15 1016.3 1016.2 0.0
17/01:30am 22.1 19.2 10.9 49 6.2 SE 17 24 9 13 1016.5 1016.4 0.0
17/01:00am 22.4 20.2 12.1 52 5.8 ESE 15 24 8 13 1016.5 1016.4 0.0
17/12:30am 22.9 19.9 12.5 52 5.9 ESE 20 30 11 16 1016.4 1016.3 0.0
17/12:00am 23.2 20.4 12.5 51 6.1 ESE 19 32 10 17 1016.4 1016.3 0.0
 
Date/Time
CST
Temp
°C
App
Temp
°C
Dew
Point
°C
Rel
Hum
%
Delta-T
°C
Wind Press
QNH
hPa
Press
MSL
hPa
Rain since
9am
mm
Dir  Spd
km/h
Gust
km/h
Spd
kts
Gust
kts
16/11:30pm 23.6 21.4 13.2 52 6.0 ESE 17 30 9 16 1016.6 1016.5 0.0
16/11:00pm 23.9 21.4 13.4 51 6.1 ESE 19 30 10 16 1016.8 1016.7 0.0
16/10:30pm 24.4 22.3 13.6 51 6.3 ESE 17 26 9 14 1016.7 1016.6 0.0
16/10:00pm 25.2 21.5 10.3 39 8.3 SE 20 33 11 18 1016.5 1016.4 0.0
16/09:30pm 25.2 23.1 12.4 45 7.4 SE 15 20 8 11 1016.3 1016.2 0.0
16/09:00pm 25.3 24.6 15.3 54 6.0 ESE 13 22 7 12 1016.1 1016.0 0.0
16/08:30pm 24.6 26.6 19.9 75 3.0 ESE 9 13 5 7 1015.7 1015.6 0.0
16/08:00pm 24.7 26.1 19.5 73 3.3 ESE 11 17 6 9 1015.4 1015.3 0.0
16/07:30pm 24.3 26.8 19.8 76 2.9 SE 6 9 3 5 1015.0 1014.9 0.0
16/07:00pm 24.4 26.4 19.2 73 3.3 ESE 7 15 4 8 1014.5 1014.4 0.0
16/06:30pm 24.6 25.9 18.5 69 3.9 ESE 9 15 5 8 1013.9 1013.8 0.0
16/06:00pm 25.1 26.4 18.5 67 4.2 E 9 19 5 10 1013.5 1013.4 0.0
16/05:30pm 25.5 26.7 18.2 64 4.6 E 9 17 5 9 1013.2 1013.1 0.0
16/05:00pm 25.8 26.6 17.4 59 5.3 E 9 20 5 11 1013.0 1012.9 0.0
16/04:30pm 25.7 26.0 17.1 59 5.3 E 11 19 6 10 1012.9 1012.8 0.0
16/04:00pm 26.3 26.1 16.8 56 5.9 E 13 20 7 11 1012.8 1012.7 0.0
16/03:30pm 26.4 26.3 16.9 56 5.9 E 13 22 7 12 1012.8 1012.7 0.0
16/03:00pm 27.3 28.1 17.2 54 6.3 ESE 9 20 5 11 1012.9 1012.8 0.0
16/02:30pm 26.7 26.6 16.9 55 6.1 E 13 24 7 13 1013.1 1013.0 0.0
16/02:00pm 26.7 25.7 15.7 51 6.7 E 15 20 8 11 1013.5 1013.4 0.0
16/01:30pm 26.9 25.5 15.6 50 6.9 E 17 24 9 13 1013.9 1013.8 0.0
16/01:00pm 26.9 25.9 15.6 50 6.9 E 15 24 8 13 1014.4 1014.3 0.0
16/12:30pm 27.4 24.6 12.6 40 8.6 ESE 19 32 10 17 1014.9 1014.8 0.0
16/12:00pm 27.4 25.1 14.1 44 7.9 ESE 19 28 10 15 1015.5 1015.4 0.0
16/11:30am 26.9 24.5 14.3 46 7.5 ESE 20 30 11 16 1016.2 1016.1 0.0
16/11:00am 26.8 25.4 15.5 50 6.9 ESE 17 26 9 14 1016.7 1016.6 0.0
16/10:30am 26.2 24.6 15.9 53 6.3 ESE 19 33 10 18 1017.0 1016.9 0.0
16/10:00am 25.3 23.8 15.3 54 6.0 ESE 17 28 9 15 1017.3 1017.2 0.0
16/09:30am 24.3 23.9 17.1 64 4.4 SE 15 22 8 12 1017.4 1017.3 0.0
16/09:00am 24.2 24.5 17.9 68 3.9 SE 13 20 7 11 1017.3 1017.2 0.0
16/08:30am 23.5 24.1 18.6 74 3.1 SE 13 22 7 12 1017.0 1016.9 0.0
16/08:00am 22.7 23.4 18.9 79 2.4 SE 13 20 7 11 1016.4 1016.3 0.0
16/07:30am 21.9 23.2 18.5 81 2.1 SE 9 15 5 8 1016.1 1016.0 0.0
16/07:00am 21.5 22.5 18.7 84 1.8 SE 11 15 6 8 1015.7 1015.6 0.0
16/06:30am 21.7 23.4 18.5 82 2.0 SE 7 13 4 7 1015.4 1015.3 0.0
16/06:00am 21.7 23.0 18.5 82 2.0 SE 9 15 5 8 1015.0 1014.9 0.0
16/05:30am 22.1 23.3 18.3 79 2.4 SE 9 13 5 7 1014.8 1014.7 0.0
16/05:00am 22.4 23.5 18.0 76 2.7 SE 9 17 5 9 1014.7 1014.6 0.0
16/04:30am 22.2 24.0 18.8 81 2.1 SE 7 13 4 7 1014.6 1014.5 0.0
16/04:00am 22.7 23.9 18.3 76 2.8 SE 9 17 5 9 1014.4 1014.3 0.0
16/03:30am 23.2 24.5 18.5 75 3.0 SE 9 17 5 9 1014.5 1014.4 0.0
16/03:00am 23.7 24.1 18.1 71 3.5 SE 13 19 7 10 1014.5 1014.4 0.0
16/02:30am 23.3 25.5 20.4 84 1.9 SE 9 13 5 7 1014.3 1014.2 0.0
16/02:00am 25.0 26.1 20.5 76 2.9 ESE 15 20 8 11 1014.1 1014.0 0.0
16/01:30am 24.8 25.9 20.5 77 2.8 ESE 15 24 8 13 1014.1 1014.0 0.0
16/01:00am 24.8 26.3 20.5 77 2.8 ESE 13 19 7 10 1014.1 1014.0 0.0
16/12:30am 24.7 26.6 20.6 78 2.7 ESE 11 15 6 8 1014.2 1014.1 0.0
16/12:00am 24.5 26.7 20.4 78 2.7 ESE 9 15 5 8 1014.2 1014.1 0.0
 
Date/Time
CST
Temp
°C
App
Temp
°C
Dew
Point
°C
Rel
Hum
%
Delta-T
°C
Wind Press
QNH
hPa
Press
MSL
hPa
Rain since
9am
mm
Dir  Spd
km/h
Gust
km/h
Spd
kts
Gust
kts
15/11:30pm 23.7 26.3 20.0 80 2.4 SE 6 7 3 4 1014.1 1014.0 0.0
15/11:00pm 23.4 25.7 19.5 79 2.5 SE 6 6 3 3 1014.0 1013.9 0.0
15/10:30pm 23.8 26.4 19.3 76 2.9 SE 4 9 2 5 1013.9 1013.8 0.0
15/10:00pm 23.6 25.9 19.5 78 2.6 SE 6 7 3 4 1013.9 1013.8 0.0
15/09:30pm 22.8 25.5 19.4 81 2.2 SE 4 7 2 4 1013.7 1013.6 0.0
15/09:00pm 22.7 25.1 18.7 78 2.5 SE 4 6 2 3 1013.3 1013.2 0.0
15/08:30pm 23.2 25.6 18.7 76 2.8 SE 4 7 2 4 1013.0 1012.9 0.0
15/08:00pm 23.6 25.9 18.5 73 3.2 SE 4 7 2 4 1012.5 1012.4 0.0
15/07:30pm 23.4 25.4 17.8 71 3.5 SE 4 6 2 3 1012.1 1012.0 0.0
15/07:00pm 24.1 26.1 17.8 68 3.9 SE 4 7 2 4 1011.5 1011.4 0.0
15/06:30pm 24.7 26.5 17.4 64 4.5 SE 4 9 2 5 1011.1 1011.0 0.0
15/06:00pm 25.6 26.5 16.5 57 5.6 ESE 7 15 4 8 1010.7 1010.6 0.0
15/05:30pm 26.0 25.7 15.4 52 6.4 E 11 17 6 9 1010.4 1010.3 0.0
15/05:00pm 26.4 25.7 14.2 47 7.3 E 11 19 6 10 1010.4 1010.3 0.0
15/04:30pm 26.9 26.6 16.5 53 6.4 E 13 22 7 12 1010.2 1010.1 0.0
15/04:00pm 26.9 26.6 16.5 53 6.4 E 13 26 7 14 1010.2 1010.1 0.0
15/03:30pm 27.3 27.2 16.9 53 6.5 E 13 26 7 14 1010.4 1010.3 0.0
15/03:00pm 27.4 27.6 17.6 55 6.2 E 13 26 7 14 1010.5 1010.4 0.0
15/02:30pm 27.3 26.3 15.7 49 7.1 E 15 24 8 13 1010.8 1010.7 0.0
15/02:00pm 26.9 25.6 16.8 54 6.3 E 19 28 10 15 1011.1 1011.0 0.0
15/01:30pm 27.2 27.4 17.7 56 6.0 E 13 22 7 12 1011.6 1011.5 0.0
15/01:00pm 26.9 27.4 19.3 63 4.9 ESE 15 20 8 11 1012.2 1012.1 0.0
15/12:30pm 26.4 27.2 19.8 67 4.3 E 15 22 8 12 1012.8 1012.7 0.0
15/12:00pm 26.1 27.8 20.2 70 3.8 ESE 11 19 6 10 1013.2 1013.1 0.0
15/11:30am 25.6 27.1 20.6 74 3.3 ESE 13 19 7 10 1013.8 1013.7 0.0
15/11:00am 26.1 28.2 20.9 73 3.4 ESE 11 17 6 9 1014.4 1014.3 0.0
15/10:30am 25.1 27.3 20.4 75 3.1 ESE 9 17 5 9 1014.7 1014.6 0.0
15/10:00am 25.2 27.2 20.7 76 2.9 ESE 11 17 6 9 1014.9 1014.8 0.0
15/09:30am 24.9 26.7 20.4 76 2.9 ESE 11 17 6 9 1014.8 1014.7 0.0
15/09:00am 24.2 26.4 20.5 80 2.4 SE 9 17 5 9 1014.7 1014.6 0.0
15/08:30am 23.7 26.2 20.2 81 2.3 SE 7 13 4 7 1014.4 1014.3 0.0
15/08:00am 23.3 25.5 20.4 84 1.9 SE 9 15 5 8 1014.2 1014.1 0.0
15/07:30am 22.2 24.7 20.3 89 1.2 SE 7 11 4 6 1013.9 1013.8 0.0
15/07:00am 21.9 23.9 20.0 89 1.2 SE 9 13 5 7 1013.7 1013.6 0.0
15/06:30am 22.0 24.0 19.9 88 1.3 SE 9 15 5 8 1013.4 1013.3 0.0
15/06:00am 22.2 23.8 19.9 87 1.5 SE 11 17 6 9 1013.3 1013.2 0.0
15/05:30am 22.2 23.7 19.7 86 1.6 SE 11 19 6 10 1013.1 1013.0 0.0
15/05:00am 22.3 23.5 19.8 86 1.6 SE 13 20 7 11 1013.0 1012.9 0.0
15/04:30am 22.4 23.9 19.8 85 1.7 SE 11 19 6 10 1012.9 1012.8 0.0
15/04:00am 22.6 24.1 19.8 84 1.8 SE 11 19 6 10 1012.9 1012.8 0.0
15/03:30am 23.0 24.1 19.6 81 2.2 SE 13 22 7 12 1012.7 1012.6 0.0
15/03:00am 23.2 24.2 19.4 79 2.4 SE 13 20 7 11 1012.9 1012.8 0.0
15/02:30am 23.9 24.4 19.2 75 3.0 SE 15 24 8 13 1013.0 1012.9 0.0
15/02:00am 24.9 26.2 20.2 75 3.1 E 13 22 7 12 1013.0 1012.9 0.0
15/01:30am 25.1 26.2 19.7 72 3.5 E 13 22 7 12 1013.2 1013.1 0.0
15/01:00am 24.9 26.7 19.5 72 3.5 ESE 9 20 5 11 1013.3 1013.2 0.0
15/12:30am 23.8 26.1 19.5 77 2.8 SE 6 9 3 5 1013.4 1013.3 0.0
15/12:00am 23.0 25.6 19.2 79 2.4 SE 4 6 2 3 1013.5 1013.4 0.0
 
Date/Time
CST
Temp
°C
App
Temp
°C
Dew
Point
°C
Rel
Hum
%
Delta-T
°C
Wind Press
QNH
hPa
Press
MSL
hPa
Rain since
9am
mm
Dir  Spd
km/h
Gust
km/h
Spd
kts
Gust
kts
14/11:30pm 23.3 25.7 18.8 76 2.8 SE 4 6 2 3 1013.5 1013.4 0.0
14/11:00pm 24.0 26.4 18.9 73 3.2 SE 4 7 2 4 1013.6 1013.5 0.0
14/10:30pm 23.7 25.6 18.6 73 3.2 SE 6 7 3 4 1013.7 1013.6 0.0
14/10:00pm 22.4 24.5 18.2 77 2.6 SSE 4 6 2 3 1013.9 1013.8 0.0
14/09:30pm 22.2 24.3 18.0 77 2.6 SSE 4 6 2 3 1013.9 1013.8 0.0
14/09:00pm 22.3 24.1 17.4 74 3.0 SSE 4 4 2 2 1013.7 1013.6 0.0
14/08:30pm 23.1 24.9 17.3 70 3.6 SE 4 7 2 4 1013.4 1013.3 0.0
14/08:00pm 23.4 25.1 17.2 68 3.8 SE 4 7 2 4 1013.1 1013.0 0.0

Other formats

Comma delimited format used in spreadsheet applications
http://www.bom.gov.au/fwo/IDD60801/IDD60801.94139.axf

JavaScript Object Notation format (JSON) in row-major order
http://www.bom.gov.au/fwo/IDD60801/IDD60801.94139.json

Data quality

Most of these data are generated automatically and are frequently updated. Quality checks on data are not normally performed. It is possible for incorrect values to appear. Refer to information at About Latest Weather Observations and please check the disclaimer before using these data.